createdAt,value
2022-11-16T00:03:18.561Z,7.60
2022-11-16T00:08:19.828Z,12.48
2022-11-16T00:13:21.238Z,14.77
2022-11-16T00:18:23.084Z,16.70
2022-11-16T00:23:24.710Z,18.23
2022-11-16T00:28:25.973Z,13.32
2022-11-16T00:33:27.767Z,10.45
2022-11-16T00:38:29.091Z,6.57
2022-11-16T00:43:30.560Z,6.47
2022-11-16T00:48:32.273Z,6.10
2022-11-16T00:53:34.896Z,5.70
2022-11-16T00:58:36.452Z,6.07
2022-11-16T01:03:38.520Z,5.97
2022-11-16T01:08:41.210Z,5.53
2022-11-16T01:13:42.531Z,5.88
2022-11-16T01:18:47.878Z,5.00
2022-11-16T01:23:49.470Z,5.10
2022-11-16T01:28:50.809Z,4.80
2022-11-16T01:33:52.111Z,5.50
2022-11-16T01:38:53.460Z,5.68
2022-11-16T01:44:01.579Z,5.53
2022-11-16T01:49:07.056Z,5.85
2022-11-16T01:54:12.229Z,5.35
2022-11-16T01:59:14.683Z,5.35
2022-11-16T02:04:16.031Z,5.72
2022-11-16T02:09:54.095Z,5.63
2022-11-16T02:15:24.518Z,5.53
2022-11-16T02:20:43.641Z,5.45
2022-11-16T02:25:54.013Z,6.50
2022-11-16T02:31:00.776Z,6.00
2022-11-16T02:36:05.837Z,5.90
2022-11-16T02:41:15.523Z,5.60
2022-11-16T02:46:21.747Z,5.97
2022-11-16T02:51:26.360Z,6.53
2022-11-16T02:56:28.502Z,5.88
2022-11-16T03:01:37.988Z,6.00
2022-11-16T03:06:41.679Z,6.25
2022-11-16T03:11:59.701Z,6.70
2022-11-16T03:17:03.605Z,6.18
2022-11-16T03:22:14.196Z,6.50
2022-11-16T03:27:26.718Z,7.00
2022-11-16T03:32:56.119Z,6.45
2022-11-16T03:37:59.771Z,6.60
2022-11-16T03:43:04.586Z,6.57
2022-11-16T03:48:06.756Z,6.38
2022-11-16T03:53:08.033Z,6.65
2022-11-16T03:58:09.385Z,6.32
2022-11-16T04:03:10.720Z,6.47
2022-11-16T04:08:36.293Z,6.20
2022-11-16T04:13:56.299Z,6.82
2022-11-16T04:19:16.092Z,6.07
2022-11-16T04:24:22.739Z,6.45
2022-11-16T04:29:24.266Z,5.82
2022-11-16T04:34:44.284Z,6.50
2022-11-16T04:39:45.736Z,6.45
2022-11-16T04:45:05.867Z,6.93
2022-11-16T04:50:07.608Z,6.65
2022-11-16T04:55:09.846Z,6.00
2022-11-16T05:00:11.925Z,6.43
2022-11-16T05:05:13.648Z,7.85
2022-11-16T05:10:15.023Z,6.20
2022-11-16T05:15:17.550Z,7.25
2022-11-16T05:20:37.653Z,7.10
2022-11-16T05:25:38.930Z,6.85
2022-11-16T05:30:40.304Z,8.43
2022-11-16T05:35:41.735Z,8.65
2022-11-16T05:40:43.058Z,9.82
2022-11-16T05:45:44.413Z,9.27
2022-11-16T05:50:45.695Z,9.77
2022-11-16T05:55:47.027Z,8.23
2022-11-16T06:00:48.740Z,8.32
2022-11-16T06:05:53.192Z,8.50
2022-11-16T06:15:55.761Z,7.22
2022-11-16T06:20:57.205Z,7.75
2022-11-16T06:25:58.621Z,8.15
2022-11-16T06:31:00.037Z,8.38
2022-11-16T06:36:01.512Z,7.45
2022-11-16T06:41:03.152Z,8.18
2022-11-16T06:46:04.677Z,8.70
2022-11-16T06:51:06.079Z,9.85
2022-11-16T06:56:07.930Z,8.65
2022-11-16T07:01:11.433Z,8.45
2022-11-16T07:06:14.078Z,9.17
2022-11-16T07:11:15.384Z,8.20
2022-11-16T07:16:16.692Z,9.05
2022-11-16T07:21:18.749Z,9.23
2022-11-16T07:26:20.207Z,8.10
2022-11-16T07:31:21.504Z,8.70
2022-11-16T07:36:22.795Z,8.68
2022-11-16T07:41:24.220Z,8.25
2022-11-16T07:46:46.047Z,8.80
2022-11-16T07:51:46.892Z,8.93
2022-11-16T07:56:48.158Z,7.57
2022-11-16T08:01:49.664Z,7.72
2022-11-16T08:06:51.769Z,6.88
2022-11-16T08:11:53.274Z,7.28
2022-11-16T08:16:54.548Z,6.80
2022-11-16T08:21:55.870Z,6.70
2022-11-16T08:26:58.644Z,6.32
2022-11-16T08:31:59.986Z,6.93
2022-11-16T08:37:01.296Z,6.35
2022-11-16T08:42:02.666Z,5.50
2022-11-16T08:47:04.092Z,6.15
2022-11-16T08:52:05.433Z,5.75
2022-11-16T08:57:06.971Z,6.57
2022-11-16T09:02:10.095Z,4.47
2022-11-16T09:07:11.603Z,3.75
2022-11-16T09:12:13.083Z,3.90
2022-11-16T09:17:18.796Z,3.22
2022-11-16T09:22:23.427Z,2.88
2022-11-16T09:27:24.892Z,3.38
2022-11-16T09:32:26.212Z,3.00
2022-11-16T09:37:27.495Z,3.35
2022-11-16T09:42:35.170Z,2.28
2022-11-16T09:47:51.655Z,1.88
2022-11-16T09:52:57.606Z,1.80
2022-11-16T09:58:02.999Z,1.98
2022-11-16T10:03:10.875Z,1.42
2022-11-16T10:08:32.847Z,1.23
2022-11-16T10:14:04.432Z,1.20
2022-11-16T10:19:35.797Z,1.20
2022-11-16T10:24:53.631Z,1.30
2022-11-16T10:30:20.280Z,1.98
2022-11-16T10:35:32.348Z,1.23
2022-11-16T10:40:38.289Z,1.58
2022-11-16T10:45:47.224Z,1.63
2022-11-16T10:50:51.464Z,1.40
2022-11-16T10:56:14.771Z,1.90
2022-11-16T11:01:32.999Z,1.52
2022-11-16T11:06:34.568Z,2.15
2022-11-16T11:11:54.515Z,2.00
2022-11-16T11:16:55.994Z,2.20
2022-11-16T11:22:00.918Z,2.50
2022-11-16T11:27:02.206Z,3.20
2022-11-16T11:32:13.067Z,2.00
2022-11-16T11:37:22.480Z,2.92
2022-11-16T11:42:23.909Z,2.85
2022-11-16T11:48:01.546Z,2.40
2022-11-16T11:53:07.556Z,1.77
2022-11-16T11:58:16.390Z,2.40
2022-11-16T12:03:30.359Z,2.00
2022-11-16T12:09:00.689Z,1.98
2022-11-16T12:14:33.584Z,2.35
2022-11-16T12:20:02.533Z,2.30
2022-11-16T12:25:41.560Z,4.15
2022-11-16T12:31:03.665Z,4.40
2022-11-16T12:36:19.488Z,2.83
2022-11-16T12:41:32.883Z,2.80
2022-11-16T12:46:45.886Z,3.38
2022-11-16T12:52:05.693Z,2.70
2022-11-16T12:57:37.123Z,2.70
2022-11-16T13:03:12.936Z,1.88
2022-11-16T13:08:32.988Z,2.15
2022-11-16T13:13:36.698Z,1.75
2022-11-16T13:18:42.347Z,1.73
2022-11-16T13:23:47.434Z,1.48
2022-11-16T13:28:57.835Z,1.85
2022-11-16T13:34:06.927Z,2.17
2022-11-16T13:39:09.247Z,2.15
2022-11-16T13:44:17.611Z,1.55
2022-11-16T13:49:20.288Z,1.65
2022-11-16T13:54:50.543Z,1.73
2022-11-16T14:00:11.990Z,1.38
2022-11-16T14:05:13.236Z,1.60
2022-11-16T14:10:32.943Z,1.60
2022-11-16T14:15:37.795Z,1.10
2022-11-16T14:20:56.116Z,1.83
2022-11-16T14:26:12.100Z,2.03
2022-11-16T14:31:46.256Z,2.10
2022-11-16T14:36:49.325Z,1.73
2022-11-16T14:41:51.275Z,2.47
2022-11-16T14:46:53.283Z,1.60
2022-11-16T14:52:00.671Z,1.80
2022-11-16T14:57:04.771Z,1.98
2022-11-16T15:02:26.950Z,1.60
2022-11-16T15:07:29.632Z,2.10
2022-11-16T15:12:41.477Z,2.38
2022-11-16T15:17:53.167Z,13.95
2022-11-16T15:23:00.625Z,3.88
2022-11-16T15:28:23.280Z,17.02
2022-11-16T15:33:37.447Z,1.95
2022-11-16T15:38:39.217Z,2.10
2022-11-16T15:44:09.326Z,2.22
2022-11-16T15:49:33.339Z,2.30
2022-11-16T15:54:55.847Z,2.40
2022-11-16T15:59:57.775Z,2.33
2022-11-16T16:04:59.081Z,11.45
2022-11-16T16:10:18.723Z,2.33
2022-11-16T16:15:40.359Z,2.72
2022-11-16T16:20:47.897Z,2.45
2022-11-16T16:25:50.730Z,2.72
2022-11-16T16:30:52.293Z,2.80
2022-11-16T16:35:53.594Z,2.90
2022-11-16T16:41:02.938Z,2.85
2022-11-16T16:46:04.431Z,3.75
2022-11-16T16:51:05.728Z,3.00
2022-11-16T16:56:14.485Z,2.92
2022-11-16T17:01:15.952Z,2.30
2022-11-16T17:06:17.352Z,19.77
2022-11-16T17:11:18.642Z,53.15
2022-11-16T17:16:19.926Z,25.70
2022-11-16T17:21:21.612Z,8.95
2022-11-16T17:26:24.533Z,7.93
2022-11-16T17:31:26.218Z,9.93
2022-11-16T17:36:27.487Z,9.65
2022-11-16T17:41:28.874Z,6.45
2022-11-16T17:46:30.528Z,4.47
2022-11-16T17:51:31.929Z,4.43
2022-11-16T17:56:33.197Z,4.72
2022-11-16T18:01:34.700Z,4.55
2022-11-16T18:06:36.168Z,6.22
2022-11-16T18:11:39.592Z,5.63
2022-11-16T18:16:43.283Z,4.82
2022-11-16T18:21:45.131Z,4.83
2022-11-16T18:26:46.404Z,4.03
2022-11-16T18:31:47.707Z,5.32
2022-11-16T18:36:50.708Z,4.18
2022-11-16T18:41:54.987Z,4.93
2022-11-16T18:46:56.716Z,5.18
2022-11-16T18:51:57.982Z,4.57
2022-11-16T18:56:59.284Z,4.65
2022-11-16T19:02:00.630Z,4.85
2022-11-16T19:07:02.005Z,5.18
2022-11-16T19:12:03.563Z,4.97
2022-11-16T19:17:05.619Z,7.32
2022-11-16T19:22:06.882Z,6.93
2022-11-16T19:27:08.181Z,5.07
2022-11-16T19:32:09.444Z,4.70
2022-11-16T19:37:11.033Z,5.15
2022-11-16T19:42:12.359Z,3.67
2022-11-16T19:47:13.690Z,3.85
2022-11-16T19:52:14.960Z,4.07
2022-11-16T19:57:20.312Z,5.35
2022-11-16T20:02:21.600Z,4.88
2022-11-16T20:07:23.344Z,4.45
2022-11-16T20:12:24.625Z,4.45
2022-11-16T20:17:26.104Z,4.05
2022-11-16T20:22:27.557Z,4.50
2022-11-16T20:27:28.840Z,4.05
2022-11-16T20:32:30.226Z,4.22
2022-11-16T20:37:31.481Z,4.10
2022-11-16T20:42:32.721Z,3.42
2022-11-16T20:47:34.018Z,3.45
2022-11-16T20:52:39.681Z,2.92
2022-11-16T20:57:43.992Z,3.30
2022-11-16T21:02:45.301Z,3.88
2022-11-16T21:07:46.580Z,3.25
2022-11-16T21:13:07.179Z,3.47
2022-11-16T21:18:08.429Z,3.03
2022-11-16T21:23:09.710Z,3.33
2022-11-16T21:28:11.101Z,2.90
2022-11-16T21:33:12.400Z,3.25
2022-11-16T21:38:14.106Z,3.10
2022-11-16T21:43:16.445Z,2.55
2022-11-16T21:48:17.822Z,3.05
2022-11-16T21:53:19.092Z,3.17
2022-11-16T21:58:20.438Z,2.88
2022-11-16T22:03:23.514Z,3.00
2022-11-16T22:08:24.874Z,3.17
2022-11-16T22:13:26.121Z,3.17
2022-11-16T22:18:29.456Z,2.42
2022-11-16T22:23:31.400Z,2.53
2022-11-16T22:28:35.042Z,2.92
2022-11-16T22:33:36.655Z,2.63
2022-11-16T22:38:38.290Z,2.15
2022-11-16T22:43:39.787Z,2.20
2022-11-16T22:48:41.854Z,2.90
2022-11-16T22:53:43.128Z,2.53
2022-11-16T22:58:44.560Z,3.10
2022-11-16T23:03:46.383Z,3.25
2022-11-16T23:08:47.739Z,4.18
2022-11-16T23:14:08.601Z,3.58
2022-11-16T23:19:30.895Z,4.28
2022-11-16T23:24:50.845Z,4.07
2022-11-16T23:29:53.412Z,3.45
2022-11-16T23:34:54.742Z,3.72
2022-11-16T23:39:56.116Z,3.60
2022-11-16T23:44:57.383Z,2.72
2022-11-16T23:49:58.733Z,2.65
2022-11-16T23:54:59.996Z,2.78
